createdAt,value
2023-01-25T00:02:52.147Z,3.82
2023-01-25T00:17:42.172Z,3.79
2023-01-25T00:32:32.875Z,3.78
2023-01-25T00:47:22.502Z,3.72
2023-01-25T01:02:12.219Z,3.64
2023-01-25T01:17:07.572Z,3.71
2023-01-25T01:31:53.206Z,3.70
2023-01-25T01:46:42.628Z,3.62
2023-01-25T02:01:33.001Z,3.58
2023-01-25T02:16:23.644Z,3.61
2023-01-25T02:31:13.496Z,3.63
2023-01-25T02:46:15.787Z,3.66
2023-01-25T03:01:09.662Z,3.67
2023-01-25T03:16:05.090Z,3.67
2023-01-25T03:30:57.346Z,3.63
2023-01-25T03:45:47.619Z,3.59
2023-01-25T04:00:44.604Z,3.59
2023-01-25T04:15:32.202Z,3.55
2023-01-25T04:30:22.298Z,3.53
2023-01-25T04:45:12.716Z,3.53
2023-01-25T05:00:02.111Z,3.43
2023-01-25T05:14:51.502Z,3.31
2023-01-25T05:29:41.175Z,3.17
2023-01-25T05:44:30.702Z,3.04
2023-01-25T05:59:21.446Z,3.00
2023-01-25T06:14:12.260Z,2.86
2023-01-25T06:29:01.967Z,2.85
2023-01-25T06:43:52.882Z,2.92
2023-01-25T06:58:44.452Z,2.91
2023-01-25T07:13:34.058Z,2.75
2023-01-25T07:43:14.544Z,2.75
2023-01-25T07:58:04.954Z,2.78
2023-01-25T08:12:55.428Z,2.92
2023-01-25T08:27:46.664Z,2.99
2023-01-25T08:42:41.985Z,2.99
2023-01-25T08:57:32.780Z,3.09
2023-01-25T09:12:23.455Z,3.11
2023-01-25T09:27:13.020Z,3.14
2023-01-25T09:42:20.359Z,3.25
2023-01-25T09:57:20.817Z,3.36
2023-01-25T10:12:19.239Z,3.48
2023-01-25T10:27:24.811Z,3.46
2023-01-25T10:42:19.964Z,3.46
2023-01-25T10:57:09.751Z,3.50
2023-01-25T11:12:05.548Z,3.52
2023-01-25T11:27:14.463Z,3.49
2023-01-25T11:42:27.702Z,3.52
2023-01-25T11:57:39.098Z,3.38
2023-01-25T12:12:37.293Z,3.49
2023-01-25T12:28:07.685Z,3.57
2023-01-25T12:43:02.988Z,3.51
2023-01-25T12:58:11.822Z,3.54
2023-01-25T13:13:05.556Z,3.61
2023-01-25T13:27:55.363Z,3.46
2023-01-25T13:42:45.043Z,3.52
2023-01-25T13:57:34.837Z,3.49
2023-01-25T14:12:36.904Z,3.49
2023-01-25T14:27:30.995Z,3.42
2023-01-25T14:42:21.594Z,3.53
2023-01-25T14:57:30.119Z,3.54
2023-01-25T15:12:27.389Z,3.43
2023-01-25T15:27:21.900Z,3.48
2023-01-25T15:42:10.687Z,3.34
2023-01-25T15:57:00.645Z,3.24
2023-01-25T16:11:52.855Z,3.32
2023-01-25T16:26:44.742Z,3.29
2023-01-25T16:56:36.815Z,3.28
2023-01-25T17:11:30.773Z,3.15
2023-01-25T17:26:19.250Z,3.15
2023-01-25T17:41:14.953Z,3.20
2023-01-25T17:56:03.578Z,3.08
2023-01-25T18:10:55.404Z,3.11
2023-01-25T18:25:45.139Z,2.96
2023-01-25T18:40:34.907Z,2.96
2023-01-25T18:55:25.423Z,2.97
2023-01-25T19:10:17.646Z,2.88
2023-01-25T19:25:07.032Z,2.87
2023-01-25T19:39:58.394Z,2.85
2023-01-25T19:54:48.179Z,2.86
2023-01-25T20:09:38.737Z,2.79
2023-01-25T20:24:28.422Z,2.72
2023-01-25T20:39:21.405Z,2.81
2023-01-25T20:54:13.728Z,2.83
2023-01-25T21:09:03.722Z,2.76
2023-01-25T21:23:56.598Z,2.76
2023-01-25T21:38:44.222Z,2.72
2023-01-25T21:53:34.331Z,2.63
2023-01-25T22:08:25.221Z,2.62
2023-01-25T22:23:14.772Z,2.58
2023-01-25T22:38:04.917Z,2.51
2023-01-25T22:52:56.496Z,2.62
2023-01-25T23:07:47.506Z,2.55
2023-01-25T23:22:37.996Z,2.47
2023-01-25T23:37:28.237Z,2.50
2023-01-25T23:52:19.111Z,2.47
